Red Deer Regional Airport
CYQF : now visible

Airfield :











YOU CAN JOIN US ON...

 
LOGIN :

Register | Disclaimer

   EN    FR    IT 

 









Legend :    VFR   Marginal VFR   IFR   Intensive IFR   Very Intensive IFR
Visi :
Ceiling :
>= 8 km
>= 3000ft
5 to 8 km
1000 to 3000 ft
1500m to 5 km
500 to 1000 ft
800 to 1500m
200 to 500 ft
< 800m
< 200 ft
Symbols :   Thunderstorms  Fog  Heavy snow  Heavy precipitations  Wind > 20 kt







- Airport Elevation : 2968 ft
- IATA code : YQF


CYQF - Red Deer Regional

CURRENT METAR :
  • 211100Z 02003KT 15SM FEW060 00/M02 A2988 RMK SC2 SLP146

EXPIRED METARs :
  • 211000Z 04003KT 15SM FEW080 02/M02 A2989 RMK AC1 SLP147
  • 210900Z 04003KT 15SM FEW060 SCT260 01/M02 A2989 RMK SC2CI1 SLP145

TAF TAF CYQF
Valid from the 21 at 12:00 until the 22 at 00:00 UTC


211138Z 2112/2124 VRB03KT P6SM FEW060
FM211500 14010KT P6SM FEW020 SCT060
FM211700 14012G22KT P6SM BKN070
TEMPO 2117/2124 BKN040
BECMG 2121/2123 14010KT RMK NXT FCST BY 211800Z
CZEG FIR / North America



MET'MAP, your aeronautical weather chart ! - Copyright ORBIFLY December 2007 - Disclaimer

ORBIFLY MET'MAP TEAM :

Programming & Development : Alexandra Zaïnal
Concept & Development : Baudouin d'Aumeries
Co-Development & Prog : Marc-Olivier Méhu
Technical & hardware support : Manuel Goepfert

Contact : metmap@orbifly.com




SOURCES & CREDITS :

   NOAA       Earth
Advisory